Terminal Aerodrome Forecast
Issued by NWS

Home | Current Version | Previous Version | Text Only | Print | Product List | Glossary On
Versions: 1 2 3 4 5 6 7 8 9 10 11 12 13 14 15 16
000
FTUS44 KSJT 181700
TAFSOA
TAF
KSOA 181739Z 1818/1918 VRB03KT P6SM BKN004
     FM181900 VRB03KT P6SM BKN015
     FM182100 VRB04KT P6SM BKN250
     FM190300 05005KT P6SM BKN015
     FM190600 04006KT 4SM BR VCSH OVC004=

USA.gov is the U.S. government's official web portal to all federal, state and local government web resources and services.